Terminal Aerodrome Forecast
Issued by NWS Charleston, WV

Current Version | Previous Version | Graphics & Text | Print | Product List | Glossary On
Versions: 1 2 3 4 5 6 7 8 9 10 11 12 13 14 15 16 17 18 19 20 21 22 23 24 25 26 27 28 29 30
000
FTUS41 KRLX 120200 AAC
TAFBKW
TAF AMD
KBKW 120225Z 1202/1224 VRB03KT 3SM -DZ BR OVC003
      TEMPO 1202/1206 1SM -DZ BR OVC007
     FM120600 VRB03KT 1SM -DZ BR OVC002
     FM121400 VRB03KT 2SM BR BKN006
     FM121600 VRB03KT 3SM BR BKN008=

USA.gov is the U.S. government's official web portal to all federal, state and local government web resources and services.